| time (UTC) | temp F | wind direction | speed knots | gust knots | rain 1hr in | rain 24hr in | rain mn in | humidity % | barometer mb |
| 20260505173104 | 52 | 226 | 0.0 | 1.7 | 0.00 | 0.23 | 0.23 | 100 | 1015.8 |
| 20260505172603 | 52 | 226 | 0.0 | 1.7 | 0.00 | 0.23 | 0.23 | 100 | 1015.8 |
| 20260505171604 | 51 | 226 | 0.0 | 0.9 | 0.00 | 0.23 | 0.23 | 100 | 1015.6 |
| 20260505171107 | 51 | 226 | 0.0 | 1.7 | 0.00 | 0.23 | 0.23 | 100 | 1015.4 |
| 20260505170603 | 51 | 227 | 0.9 | 1.7 | 0.01 | 0.23 | 0.23 | 98 | 1015.4 |
| 20260505170104 | 51 | 226 | 0.0 | 2.6 | 0.01 | 0.23 | 0.23 | 100 | 1015.3 |
| 20260505165603 | 51 | 226 | 0.0 | 2.6 | 0.01 | 0.23 | 0.23 | 100 | 1015.2 |
| 20260505165105 | 51 | 227 | 1.7 | 2.6 | 0.01 | 0.23 | 0.23 | 100 | 1015.2 |
| 20260505164604 | 51 | 259 | 0.0 | 1.7 | 0.01 | 0.23 | 0.23 | 100 | 1015.1 |
| 20260505164104 | 51 | 259 | 0.0 | 1.7 | 0.01 | 0.23 | 0.23 | 100 | 1015.1 |
| 20260505163604 | 51 | 259 | 0.9 | 4.3 | 0.01 | 0.23 | 0.23 | 100 | 1015.1 |
| 20260505163104 | 51 | 255 | 1.7 | 4.3 | 0.01 | 0.23 | 0.23 | 100 | 1015.1 |
| 20260505162604 | 51 | 290 | 0.9 | 2.6 | 0.01 | 0.23 | 0.23 | 100 | 1015.1 |
| 20260505162104 | 51 | 313 | 0.9 | 4.3 | 0.01 | 0.23 | 0.23 | 100 | 1014.9 |
| 20260505161604 | 51 | 315 | 0.9 | 4.3 | 0.01 | 0.23 | 0.23 | 100 | 1014.7 |
| 20260505161107 | 51 | 306 | 0.9 | 2.6 | 0.01 | 0.23 | 0.23 | 100 | 1014.6 |
| 20260505160104 | 51 | 294 | 0.9 | 4.3 | 0.00 | 0.22 | 0.22 | 100 | 1014.6 |
| 20260505153104 | 51 | 274 | 1.7 | 2.6 | 0.02 | 0.22 | 0.22 | 100 | 1014.4 |
| 20260505152605 | 51 | 288 | 0.9 | 1.7 | 0.02 | 0.22 | 0.22 | 100 | 1014.3 |
| 20260505152104 | 51 | 288 | 0.9 | 1.7 | 0.03 | 0.22 | 0.22 | 96 | 1014.3 |
| 20260505151604 | 51 | 288 | 0.0 | 1.7 | 0.03 | 0.22 | 0.22 | 99 | 1014.2 |
| 20260505151107 | 52 | 288 | 0.9 | 1.7 | 0.05 | 0.22 | 0.22 | 100 | 1014.2 |
| 20260505150604 | 51 | 290 | 0.0 | 0.9 | 0.05 | 0.22 | 0.22 | 100 | 1014.1 |
| 20260505140604 | 50 | 229 | 0.9 | 1.7 | 0.06 | 0.17 | 0.17 | 95 | 1014.0 |
| 20260505140104 | 50 | 267 | 0.9 | 2.6 | 0.07 | 0.17 | 0.17 | 95 | 1014.0 |
| 20260505130105 | 50 | 153 | 0.0 | 0.9 | 0.01 | 0.10 | 0.10 | 94 | 1013.5 |
| 20260505124104 | 50 | 173 | 0.0 | 0.9 | 0.02 | 0.10 | 0.10 | 94 | 1013.5 |
| 20260505123604 | 50 | 173 | 0.0 | 0.9 | 0.02 | 0.10 | 0.10 | 94 | 1013.5 |
| 20260505123104 | 50 | 175 | 0.0 | 0.9 | 0.02 | 0.10 | 0.10 | 94 | 1013.5 |
| 20260505122604 | 50 | 175 | 0.0 | 0.9 | 0.02 | 0.10 | 0.10 | 93 | 1013.5 |
| 20260505122104 | 50 | 175 | 0.0 | 0.9 | 0.02 | 0.10 | 0.10 | 93 | 1013.5 |
| 20260505121604 | 50 | 175 | 0.0 | 0.0 | 0.02 | 0.10 | 0.10 | 93 | 1013.5 |
| 20260505121106 | 50 | 175 | 0.0 | 0.0 | 0.02 | 0.10 | 0.10 | 93 | 1013.5 |
| 20260505120604 | 50 | 175 | 0.0 | 0.0 | 0.01 | 0.09 | 0.09 | 93 | 1013.5 |
| 20260505120104 | 50 | 175 | 0.0 | 0.0 | 0.01 | 0.09 | 0.09 | 93 | 1013.5 |
| 20260505115604 | 50 | 175 | 0.0 | 0.0 | 0.01 | 0.09 | 0.09 | 93 | 1013.6 |
| 20260505115104 | 50 | 175 | 0.0 | 0.9 | 0.01 | 0.09 | 0.09 | 93 | 1013.6 |
| 20260505114603 | 50 | 175 | 0.0 | 0.9 | 0.01 | 0.09 | 0.09 | 93 | 1013.7 |
| 20260505114104 | 50 | 175 | 0.0 | 0.0 | 0.00 | 0.08 | 0.08 | 93 | 1013.6 |
| 20260505113604 | 50 | 175 | 0.0 | 0.0 | 0.00 | 0.08 | 0.08 | 93 | 1013.6 |
| 20260505113104 | 50 | 175 | 0.0 | 0.0 | 0.00 | 0.08 | 0.08 | 93 | 1013.6 |
| 20260505111604 | 49 | 175 | 0.0 | 0.0 | 0.00 | 0.08 | 0.08 | 93 | 1013.6 |
| 20260505111107 | 49 | 175 | 0.0 | 0.9 | 0.00 | 0.08 | 0.08 | 92 | 1013.6 |
| 20260505110604 | 49 | 175 | 0.0 | 0.9 | 0.00 | 0.08 | 0.08 | 92 | 1013.5 |
| 20260505110104 | 49 | 175 | 0.0 | 0.9 | 0.00 | 0.08 | 0.08 | 92 | 1013.5 |
| 20260505102104 | 49 | 175 | 0.0 | 0.9 | 0.00 | 0.08 | 0.08 | 92 | 1013.7 |
| 20260505101605 | 49 | 175 | 0.0 | 0.9 | 0.00 | 0.08 | 0.08 | 92 | 1013.8 |
| 20260505101106 | 49 | 175 | 0.0 | 0.0 | 0.00 | 0.08 | 0.08 | 92 | 1013.8 |
| 20260505100604 | 49 | 175 | 0.0 | 0.0 | 0.00 | 0.08 | 0.08 | 92 | 1013.9 |
| 20260505100105 | 49 | 175 | 0.0 | 0.0 | 0.00 | 0.08 | 0.08 | 91 | 1013.9 |
| 20260505095604 | 49 | 175 | 0.0 | 0.0 | 0.01 | 0.08 | 0.08 | 91 | 1014.0 |
| 20260505095104 | 49 | 175 | 0.0 | 0.9 | 0.01 | 0.08 | 0.08 | 91 | 1014.0 |
| 20260505094104 | 49 | 175 | 0.0 | 0.9 | 0.02 | 0.08 | 0.08 | 91 | 1014.1 |
| 20260505093605 | 49 | 175 | 0.0 | 0.9 | 0.02 | 0.08 | 0.08 | 91 | 1014.1 |
| 20260505093103 | 50 | 175 | 0.0 | 0.9 | 0.02 | 0.08 | 0.08 | 91 | 1014.1 |
| 20260505092604 | 50 | 175 | 0.0 | 0.9 | 0.02 | 0.08 | 0.08 | 91 | 1014.1 |
| 20260505092104 | 50 | 175 | 0.0 | 0.9 | 0.02 | 0.08 | 0.08 | 90 | 1014.3 |
| 20260505091604 | 50 | 175 | 0.0 | 0.9 | 0.02 | 0.08 | 0.08 | 90 | 1014.4 |
| 20260505091107 | 50 | 197 | 0.0 | 0.9 | 0.02 | 0.08 | 0.08 | 90 | 1014.6 |
| 20260505090105 | 50 | 197 | 0.0 | 0.9 | 0.02 | 0.08 | 0.08 | 90 | 1014.7 |
| 20260505085604 | 50 | 197 | 0.0 | 0.9 | 0.01 | 0.07 | 0.07 | 90 | 1014.8 |
| 20260505085104 | 50 | 197 | 0.0 | 0.0 | 0.01 | 0.07 | 0.07 | 90 | 1014.8 |
| 20260505084604 | 50 | 197 | 0.0 | 0.9 | 0.00 | 0.06 | 0.06 | 89 | 1015.0 |
| 20260505083104 | 51 | 197 | 0.0 | 0.9 | 0.02 | 0.06 | 0.06 | 89 | 1015.0 |
| 20260505082604 | 51 | 200 | 0.0 | 0.9 | 0.05 | 0.06 | 0.06 | 89 | 1015.1 |
| 20260505082103 | 51 | 209 | 0.0 | 0.9 | 0.06 | 0.06 | 0.06 | 89 | 1015.2 |
| 20260505081605 | 51 | 223 | 0.0 | 0.9 | 0.06 | 0.06 | 0.06 | 89 | 1015.2 |
| 20260505080604 | 51 | 223 | 0.0 | 0.9 | 0.06 | 0.06 | 0.06 | 88 | 1015.2 |
| 20260505080104 | 51 | 223 | 0.0 | 1.7 | 0.06 | 0.06 | 0.06 | 88 | 1015.2 |
| 20260505075604 | 51 | 223 | 0.0 | 1.7 | 0.06 | 0.06 | 0.06 | 87 | 1015.3 |
| 20260505075104 | 51 | 285 | 0.9 | 1.7 | 0.06 | 0.06 | 0.06 | 87 | 1015.3 |
| 20260505074604 | 51 | 256 | 0.9 | 1.7 | 0.06 | 0.06 | 0.06 | 86 | 1015.4 |
| 20260505074104 | 51 | 301 | 0.9 | 1.7 | 0.06 | 0.06 | 0.06 | 86 | 1015.5 |
| 20260505073604 | 51 | 317 | 0.9 | 1.7 | 0.06 | 0.06 | 0.06 | 85 | 1015.4 |
| 20260505073104 | 52 | 203 | 0.9 | 1.7 | 0.05 | 0.05 | 0.05 | 83 | 1015.3 |
| 20260505072604 | 53 | 132 | 0.9 | 1.7 | 0.02 | 0.02 | 0.02 | 83 | 1015.2 |
| 20260505072104 | 53 | 216 | 0.0 | 0.9 | 0.00 | 0.00 | 0.00 | 83 | 1015.1 |
| 20260505071604 | 53 | 216 | 0.0 | 0.9 | 0.00 | 0.00 | 0.00 | 82 | 1015.2 |
| 20260505070604 | 52 | 216 | 0.0 | 1.7 | 0.00 | 0.00 | 0.00 | 81 | 1015.3 |
| 20260505070104 | 52 | 216 | 0.0 | 1.7 | 0.00 | 0.00 | 0.00 | 81 | 1015.2 |
| 20260505065604 | 52 | 308 | 0.0 | 1.7 | 0.00 | 0.00 | 0.00 | 81 | 1015.2 |
| 20260505065104 | 52 | 248 | 0.0 | 1.7 | 0.00 | 0.00 | 0.00 | 81 | 1015.3 |
| 20260505064604 | 52 | 228 | 0.0 | 1.7 | 0.00 | 0.00 | 0.00 | 81 | 1015.3 |
| 20260505064104 | 53 | 179 | 0.0 | 1.7 | 0.00 | 0.00 | 0.00 | 80 | 1015.4 |
| 20260505063604 | 53 | 177 | 0.0 | 1.7 | 0.00 | 0.00 | 0.00 | 80 | 1015.4 |
| 20260505063104 | 53 | 208 | 0.9 | 1.7 | 0.00 | 0.00 | 0.00 | 79 | 1015.3 |
| 20260505062604 | 53 | 242 | 0.0 | 0.9 | 0.00 | 0.00 | 0.00 | 79 | 1015.3 |
| 20260505062104 | 53 | 242 | 0.0 | 1.7 | 0.00 | 0.00 | 0.00 | 79 | 1015.3 |
| 20260505061604 | 53 | 289 | 0.0 | 1.7 | 0.00 | 0.00 | 0.00 | 78 | 1015.4 |
| 20260505061106 | 53 | 0 | 0.9 | 2.6 | 0.00 | 0.00 | 0.00 | 77 | 1015.5 |
| 20260505060604 | 53 | 279 | 0.9 | 2.6 | 0.00 | 0.00 | 0.00 | 76 | 1015.5 |
| 20260505060105 | 53 | 274 | 0.9 | 2.6 | 0.00 | 0.00 | 0.00 | 77 | 1015.5 |
| 20260505054604 | 54 | 195 | 0.0 | 0.9 | 0.00 | 0.00 | 0.00 | 77 | 1015.6 |
| 20260505054104 | 54 | 190 | 0.0 | 0.9 | 0.00 | 0.00 | 0.00 | 77 | 1015.6 |
| 20260505053604 | 54 | 189 | 0.0 | 1.7 | 0.00 | 0.00 | 0.00 | 76 | 1015.6 |
| 20260505053104 | 54 | 203 | 0.0 | 1.7 | 0.00 | 0.00 | 0.00 | 76 | 1015.6 |
| 20260505052604 | 54 | 174 | 0.9 | 1.7 | 0.00 | 0.00 | 0.00 | 76 | 1015.6 |
| 20260505051604 | 54 | 141 | 0.0 | 1.7 | 0.00 | 0.00 | 0.00 | 75 | 1015.6 |
| 20260505051107 | 54 | 209 | 0.9 | 1.7 | 0.00 | 0.00 | 0.00 | 75 | 1015.6 |
| 20260505050604 | 54 | 329 | 0.9 | 2.6 | 0.00 | 0.00 | 0.00 | 75 | 1015.6 |
| 20260505050104 | 54 | 295 | 0.9 | 2.6 | 0.00 | 0.00 | 0.00 | 74 | 1015.6 |
| 20260505041605 | 54 | 333 | 0.9 | 2.6 | 0.00 | 0.00 | 0.00 | 73 | 1015.5 |
| 20260505041106 | 54 | 353 | 0.9 | 2.6 | 0.00 | 0.00 | 0.00 | 73 | 1015.5 |
| 20260505040104 | 54 | 196 | 0.9 | 2.6 | 0.00 | 0.00 | 0.00 | 71 | 1015.4 |
| 20260505035606 | 54 | 303 | 0.9 | 2.6 | 0.00 | 0.00 | 0.00 | 71 | 1015.3 |
| 20260505035104 | 55 | 284 | 0.9 | 2.6 | 0.00 | 0.00 | 0.00 | 71 | 1015.1 |
| 20260505034604 | 55 | 248 | 0.9 | 2.6 | 0.00 | 0.00 | 0.00 | 71 | 1015.1 |
| 20260505034104 | 55 | 270 | 0.9 | 2.6 | 0.00 | 0.00 | 0.00 | 71 | 1015.1 |
| 20260505033604 | 55 | 258 | 0.9 | 2.6 | 0.00 | 0.00 | 0.00 | 71 | 1015.1 |
| 20260505033104 | 55 | 306 | 1.7 | 4.3 | 0.00 | 0.00 | 0.00 | 70 | 1015.0 |
| 20260505032604 | 56 | 274 | 0.9 | 6.1 | 0.00 | 0.00 | 0.00 | 69 | 1015.0 |
| 20260505031603 | 56 | 296 | 1.7 | 6.1 | 0.00 | 0.00 | 0.00 | 68 | 1015.0 |
| 20260505031106 | 56 | 262 | 0.9 | 2.6 | 0.00 | 0.00 | 0.00 | 68 | 1014.9 |
| 20260505030606 | 56 | 302 | 0.9 | 2.6 | 0.00 | 0.00 | 0.00 | 67 | 1014.8 |
| 20260505030104 | 57 | 333 | 0.9 | 2.6 | 0.00 | 0.00 | 0.00 | 66 | 1014.7 |
| 20260505025604 | 57 | 287 | 0.9 | 5.2 | 0.00 | 0.00 | 0.00 | 64 | 1014.7 |
| 20260505024104 | 57 | 275 | 2.6 | 5.2 | 0.00 | 0.00 | 0.00 | 63 | 1014.6 |
| 20260505023604 | 57 | 278 | 2.6 | 6.1 | 0.00 | 0.00 | 0.00 | 63 | 1014.7 |
| 20260505023104 | 57 | 284 | 2.6 | 7.8 | 0.00 | 0.00 | 0.00 | 62 | 1014.6 |
| 20260505022604 | 57 | 272 | 3.5 | 7.8 | 0.00 | 0.00 | 0.00 | 62 | 1014.6 |
| 20260505022104 | 57 | 267 | 4.3 | 7.8 | 0.00 | 0.00 | 0.00 | 62 | 1014.6 |
| 20260505021604 | 57 | 290 | 2.6 | 7.0 | 0.00 | 0.00 | 0.00 | 61 | 1014.6 |
| 20260505021106 | 57 | 280 | 2.6 | 7.0 | 0.00 | 0.00 | 0.00 | 61 | 1014.6 |
| 20260505020604 | 58 | 287 | 2.6 | 7.0 | 0.00 | 0.00 | 0.00 | 60 | 1014.6 |
| 20260505020104 | 58 | 299 | 3.5 | 8.7 | 0.00 | 0.00 | 0.00 | 59 | 1014.6 |
| 20260505015604 | 58 | 273 | 4.3 | 8.7 | 0.00 | 0.00 | 0.00 | 58 | 1014.6 |
| 20260505015104 | 58 | 304 | 4.3 | 10.4 | 0.00 | 0.00 | 0.00 | 58 | 1014.5 |
| 20260505014604 | 59 | 281 | 4.3 | 10.4 | 0.00 | 0.00 | 0.00 | 57 | 1014.4 |
| 20260505014104 | 59 | 281 | 5.2 | 10.4 | 0.00 | 0.00 | 0.00 | 57 | 1014.5 |
| 20260505013103 | 60 | 300 | 6.1 | 13.0 | 0.00 | 0.00 | 0.00 | 55 | 1014.5 |
| 20260505012104 | 62 | 295 | 7.8 | 14.8 | 0.00 | 0.00 | 0.00 | 50 | 1014.4 |
| 20260505011107 | 61 | 293 | 1.7 | 4.3 | 0.00 | 0.00 | 0.00 | 50 | 1014.5 |
| 20260505010604 | 61 | 273 | 1.7 | 6.1 | 0.00 | 0.00 | 0.00 | 50 | 1014.5 |
| 20260505005603 | 61 | 275 | 2.6 | 5.2 | 0.00 | 0.00 | 0.00 | 48 | 1014.6 |
| 20260505005104 | 61 | 260 | 1.7 | 4.3 | 0.00 | 0.00 | 0.00 | 47 | 1014.5 |
| 20260505004603 | 61 | 325 | 1.7 | 5.2 | 0.00 | 0.00 | 0.00 | 48 | 1014.5 |
| 20260505004103 | 61 | 329 | 0.9 | 5.2 | 0.00 | 0.00 | 0.00 | 47 | 1014.5 |
| 20260505003604 | 61 | 265 | 2.6 | 5.2 | 0.00 | 0.00 | 0.00 | 47 | 1014.5 |
| 20260505003104 | 61 | 266 | 2.6 | 5.2 | 0.00 | 0.00 | 0.00 | 45 | 1014.5 |
| 20260505002604 | 61 | 251 | 2.6 | 5.2 | 0.00 | 0.00 | 0.00 | 44 | 1014.6 |
| 20260505002104 | 61 | 257 | 2.6 | 5.2 | 0.00 | 0.00 | 0.00 | 45 | 1014.6 |
| 20260505001604 | 61 | 277 | 1.7 | 4.3 | 0.00 | 0.00 | 0.00 | 47 | 1014.6 |
| 20260505001106 | 61 | 264 | 1.7 | 4.3 | 0.00 | 0.00 | 0.00 | 46 | 1014.7 |
| 20260505000104 | 61 | 277 | 4.3 | 7.0 | 0.00 | 0.00 | 0.00 | 46 | 1014.6 |
| 20260504235605 | 61 | 275 | 4.3 | 6.1 | 0.00 | 0.00 | 0.00 | 47 | 1014.6 |
| 20260504234604 | 61 | 284 | 1.7 | 6.1 | 0.00 | 0.00 | 0.00 | 49 | 1014.6 |
| 20260504234104 | 61 | 279 | 2.6 | 5.2 | 0.00 | 0.00 | 0.00 | 47 | 1014.6 |
| 20260504233603 | 61 | 299 | 0.9 | 2.6 | 0.00 | 0.00 | 0.00 | 47 | 1014.6 |
| 20260504232604 | 61 | 284 | 2.6 | 7.0 | 0.00 | 0.00 | 0.00 | 47 | 1014.6 |
| 20260504232103 | 61 | 316 | 3.5 | 7.8 | 0.00 | 0.00 | 0.00 | 49 | 1014.6 |
| 20260504231604 | 61 | 280 | 3.5 | 10.4 | 0.00 | 0.00 | 0.00 | 48 | 1014.6 |
| 20260504231106 | 61 | 274 | 5.2 | 10.4 | 0.00 | 0.00 | 0.00 | 48 | 1014.6 |
| 20260504230603 | 61 | 294 | 4.3 | 7.0 | 0.00 | 0.00 | 0.00 | 48 | 1014.6 |
| 20260504230104 | 61 | 288 | 2.6 | 8.7 | 0.00 | 0.00 | 0.00 | 47 | 1014.4 |
| 20260504225604 | 61 | 277 | 5.2 | 8.7 | 0.00 | 0.00 | 0.00 | 47 | 1014.6 |
| 20260504225104 | 62 | 265 | 6.1 | 8.7 | 0.00 | 0.00 | 0.00 | 47 | 1014.7 |
| 20260504224604 | 62 | 324 | 2.6 | 5.2 | 0.00 | 0.00 | 0.00 | 48 | 1014.7 |
| 20260504224104 | 61 | 259 | 1.7 | 5.2 | 0.00 | 0.00 | 0.00 | 49 | 1014.7 |
| 20260504223604 | 61 | 289 | 0.9 | 7.8 | 0.00 | 0.00 | 0.00 | 48 | 1015.0 |
| 20260504223105 | 61 | 321 | 2.6 | 7.8 | 0.00 | 0.00 | 0.00 | 49 | 1014.9 |
| 20260504222104 | 61 | 297 | 5.2 | 8.7 | 0.00 | 0.00 | 0.00 | 49 | 1015.1 |
| 20260504221604 | 61 | 296 | 2.6 | 7.0 | 0.00 | 0.00 | 0.00 | 49 | 1015.0 |
| 20260504220604 | 61 | 267 | 2.6 | 5.2 | 0.00 | 0.00 | 0.00 | 49 | 1015.2 |
| 20260504220104 | 61 | 289 | 2.6 | 7.8 | 0.00 | 0.00 | 0.00 | 50 | 1015.1 |
| 20260504215604 | 61 | 290 | 4.3 | 7.8 | 0.00 | 0.00 | 0.00 | 50 | 1015.4 |
| 20260504214104 | 61 | 285 | 1.7 | 6.1 | 0.00 | 0.00 | 0.00 | 50 | 1015.4 |
| 20260504213604 | 61 | 246 | 1.7 | 7.0 | 0.00 | 0.00 | 0.00 | 50 | 1015.6 |
| 20260504213104 | 61 | 169 | 1.7 | 7.0 | 0.00 | 0.00 | 0.00 | 51 | 1015.6 |
| 20260504212604 | 61 | 264 | 2.6 | 7.8 | 0.00 | 0.00 | 0.00 | 50 | 1015.8 |
| 20260504211604 | 60 | 250 | 2.6 | 7.0 | 0.00 | 0.00 | 0.00 | 51 | 1015.7 |
| 20260504211104 | 60 | 278 | 1.7 | 7.8 | 0.00 | 0.00 | 0.00 | 53 | 1015.8 |
| 20260504210105 | 60 | 268 | 4.3 | 7.8 | 0.00 | 0.00 | 0.00 | 53 | 1015.9 |
| 20260504205604 | 60 | 286 | 4.3 | 10.4 | 0.00 | 0.00 | 0.00 | 52 | 1016.1 |
| 20260504205104 | 60 | 269 | 5.2 | 10.4 | 0.00 | 0.00 | 0.00 | 52 | 1016.1 |
| 20260504204604 | 60 | 288 | 4.3 | 10.4 | 0.00 | 0.00 | 0.00 | 52 | 1016.1 |
| 20260504204105 | 60 | 266 | 0.9 | 4.3 | 0.00 | 0.00 | 0.00 | 54 | 1016.0 |
| 20260504203604 | 60 | 265 | 2.6 | 5.2 | 0.00 | 0.00 | 0.00 | 53 | 1015.8 |
| 20260504203104 | 60 | 232 | 2.6 | 5.2 | 0.00 | 0.00 | 0.00 | 53 | 1016.1 |
| 20260504202604 | 60 | 357 | 0.9 | 2.6 | 0.00 | 0.00 | 0.00 | 54 | 1016.2 |
| 20260504202104 | 59 | 352 | 0.9 | 4.3 | 0.00 | 0.00 | 0.00 | 54 | 1016.2 |
| 20260504201606 | 59 | 253 | 2.6 | 4.3 | 0.00 | 0.00 | 0.00 | 54 | 1016.2 |
| 20260504200607 | 59 | 250 | 0.9 | 4.3 | 0.00 | 0.00 | 0.00 | 54 | 1016.2 |
| 20260504200105 | 59 | 251 | 3.5 | 4.3 | 0.00 | 0.00 | 0.00 | 53 | 1016.3 |
| 20260504195604 | 60 | 292 | 0.9 | 4.3 | 0.00 | 0.00 | 0.00 | 54 | 1016.3 |
| 20260504195105 | 59 | 319 | 0.9 | 4.3 | 0.00 | 0.00 | 0.00 | 53 | 1016.3 |
| 20260504193604 | 59 | 0 | 2.6 | 4.3 | 0.00 | 0.00 | 0.00 | 56 | 1016.3 |
| 20260504192604 | 58 | 270 | 0.9 | 5.2 | 0.00 | 0.00 | 0.00 | 58 | 1016.3 |
| 20260504192104 | 58 | 234 | 2.6 | 5.2 | 0.00 | 0.00 | 0.00 | 58 | 1016.7 |
| 20260504191605 | 58 | 295 | 2.6 | 5.2 | 0.00 | 0.00 | 0.00 | 58 | 1016.5 |
| 20260504191104 | 58 | 305 | 1.7 | 7.8 | 0.00 | 0.00 | 0.00 | 58 | 1016.7 |
| 20260504190604 | 58 | 357 | 2.6 | 7.8 | 0.00 | 0.00 | 0.00 | 58 | 1016.8 |
| 20260504190104 | 58 | 289 | 4.3 | 7.8 | 0.00 | 0.00 | 0.00 | 58 | 1016.8 |
| 20260504185604 | 58 | 257 | 2.6 | 6.1 | 0.00 | 0.00 | 0.00 | 58 | 1016.6 |
| 20260504185104 | 57 | 270 | 0.9 | 8.7 | 0.00 | 0.00 | 0.00 | 58 | 1016.5 |
| 20260504184604 | 57 | 292 | 2.6 | 8.7 | 0.00 | 0.00 | 0.00 | 58 | 1016.6 |
| 20260504184104 | 57 | 296 | 3.5 | 8.7 | 0.00 | 0.00 | 0.00 | 56 | 1016.7 |
| 20260504183604 | 57 | 278 | 1.7 | 7.8 | 0.00 | 0.00 | 0.00 | 56 | 1016.6 |
| 20260504182604 | 58 | 271 | 4.3 | 8.7 | 0.00 | 0.00 | 0.00 | 56 | 1016.8 |
| 20260504182104 | 58 | 296 | 5.2 | 8.7 | 0.00 | 0.00 | 0.00 | 55 | 1016.8 |
| 20260504181605 | 58 | 297 | 4.3 | 7.0 | 0.00 | 0.00 | 0.00 | 55 | 1016.8 |
| 20260504181104 | 58 | 272 | 3.5 | 6.1 | 0.00 | 0.00 | 0.00 | 56 | 1016.7 |
| 20260504180606 | 57 | 285 | 1.7 | 4.3 | 0.00 | 0.00 | 0.00 | 57 | 1016.7 |
| 20260504175104 | 57 | 269 | 2.6 | 7.0 | 0.00 | 0.00 | 0.00 | 57 | 1016.5 |
| 20260504174604 | 57 | 273 | 2.6 | 7.8 | 0.00 | 0.00 | 0.00 | 55 | 1016.3 |
| 20260504174104 | 57 | 271 | 4.3 | 7.8 | 0.00 | 0.00 | 0.00 | 56 | 1016.3 |